METAR AND TAF INFORMATION
METAR FOR KOGS
ADDS - METARS form results

(1723 UTC 24 February 2020)
Data provider http://aviationweather.gov/metar/data/
 
METAR text: KOGS 241715Z AUTO 23010G19KT 200V270 10SM CLR 09/M02 A2987 RMK AO2
Conditions at: KOGS (OGDENSBURG INTL , NY, US) observed 1715 UTC 24 February 2020
Temperature: 9.0°C (48°F)
Dewpoint: -2.0°C (28°F) [RH = 46%]
Pressure (altimeter): 29.87 inches Hg (1011.6 mb)
Winds: from the SW (230 degrees) at 12 MPH (10 knots; 5.1 m/s)
gusting to 22 MPH (19 knots; 9.8 m/s)
Visibility: 10 or more miles (16+ km)
Ceiling: at least 12,000 feet AGL
Clouds: sky clear below 12,000 feet AGL
Weather: automated observation with no human augmentation;
there may or may not be significant weather present at this time

METAR text: KOGS 241655Z AUTO 21008G13KT 10SM CLR 08/M02 A2987 RMK AO2
Conditions at: KOGS (OGDENSBURG INTL , NY, US) observed 1655 UTC 24 February 2020
Temperature: 8.0°C (46°F)
Dewpoint: -2.0°C (28°F) [RH = 49%]
Pressure (altimeter): 29.87 inches Hg (1011.6 mb)
Winds: from the SSW (210 degrees) at 9 MPH (8 knots; 4.1 m/s)
gusting to 15 MPH (13 knots; 6.7 m/s)
Visibility: 10 or more miles (16+ km)
Ceiling: at least 12,000 feet AGL
Clouds: sky clear below 12,000 feet AGL
Weather: automated observation with no human augmentation;
there may or may not be significant weather present at this time

METAR text: KOGS 241635Z AUTO 23010G16KT 10SM CLR 08/M02 A2987 RMK AO2
Conditions at: KOGS (OGDENSBURG INTL , NY, US) observed 1635 UTC 24 February 2020
Temperature: 8.0°C (46°F)
Dewpoint: -2.0°C (28°F) [RH = 49%]
Pressure (altimeter): 29.87 inches Hg (1011.6 mb)
Winds: from the SW (230 degrees) at 12 MPH (10 knots; 5.1 m/s)
gusting to 18 MPH (16 knots; 8.2 m/s)
Visibility: 10 or more miles (16+ km)
Ceiling: at least 12,000 feet AGL
Clouds: sky clear below 12,000 feet AGL
Weather: automated observation with no human augmentation;
there may or may not be significant weather present at this time

 AIRPORT MAP

 RUNWAY INFORMATION
Runway 09 Runway length 5200 ft Runway width 150 ft
Runway elevation 286 ft Runway displaced threshold 0 ft Runway heading 76
Runway 27 Runway length 5200 ft Runway width 150 ft
Runway elevation 297 ft Runway displaced threshold 0 ft Runway heading 256

 AIRPORT FREQUENCIES
Type AWOS Name AWOS 3 Frequency 118.525 MHZ
Type CNTR Name BOSTON CNT Frequency 135.25 MHZ
Type RDO Name BURLINGTON Frequency 122.4 MHZ
Type UNIC Name CTAF/UNICO Frequency 122.8 MHZ

 AIRPORT NEAR NAVIGATION AIDS



Copyright © 2020 Cape Air Virtual

CMS powered by VAM [v2.6.2]